Time;durP1;ratioP1;P1;durP2;ratioP2;P2;SDS_P1;SDS_P2;PMS_P1;PMS_P2;Temp;Humidity;BMP_temperature;BMP_pressure;BME280_temperature;BME280_humidity;BME280_pressure;Samples;Min_cycle;Max_cycle;Signal;HPM_P1;HPM_P2
2022/04/21 00:00:16;;;;;;;3.53;1.88;;;;;;;10.53;44.04;96656.19;6121838;23;20308;-86
2022/04/21 00:02:42;;;;;;;2.95;1.70;;;;;;;10.49;43.36;96660.34;6096111;23;20183;-86
2022/04/21 00:05:10;;;;;;;2.83;1.63;;;;;;;10.37;43.80;96654.59;6097057;23;20159;-86
2022/04/21 00:07:36;;;;;;;3.65;1.70;;;;;;;10.39;43.67;96655.13;6088027;23;20159;-86
2022/04/21 00:10:03;;;;;;;2.75;1.80;;;;;;;10.32;43.96;96660.56;6089394;23;20270;-86
2022/04/21 00:12:28;;;;;;;2.38;1.80;;;;;;;10.46;45.00;96681.69;6096692;23;20180;-86
2022/04/21 00:14:54;;;;;;;2.13;1.80;;;;;;;10.28;44.80;96657.66;6096488;23;20335;-86
2022/04/21 00:17:20;;;;;;;2.65;1.42;;;;;;;10.41;44.58;96684.25;6096897;23;20647;-87
2022/04/21 00:19:45;;;;;;;2.63;1.60;;;;;;;10.39;44.88;96681.91;6096211;23;20594;-86
2022/04/21 00:24:57;;;;;;;3.47;1.70;;;;;;;10.13;46.27;96653.16;6125526;23;20238;-86
2022/04/21 00:27:23;;;;;;;3.45;1.98;;;;;;;10.12;46.21;96656.00;6062984;23;20188;-86
2022/04/21 00:29:49;;;;;;;2.63;1.55;;;;;;;10.10;46.55;96648.47;6086531;23;20540;-86
2022/04/21 00:32:14;;;;;;;2.65;1.80;;;;;;;10.31;47.40;96664.16;6062352;23;20680;-87
2022/04/21 00:34:40;;;;;;;4.50;1.88;;;;;;;10.27;47.00;96648.28;6087503;23;20311;-87
2022/04/21 00:37:06;;;;;;;3.28;1.75;;;;;;;10.31;47.32;96651.16;6122488;23;20602;-86
2022/04/21 00:39:32;;;;;;;2.60;1.70;;;;;;;10.26;47.58;96641.53;6121376;23;20262;-86
2022/04/21 00:42:02;;;;;;;2.25;1.75;;;;;;;10.14;47.58;96640.94;6086958;23;20265;-86
2022/04/21 00:44:29;;;;;;;3.10;1.90;;;;;;;10.20;47.18;96641.75;6085856;23;20332;-86
2022/04/21 00:46:55;;;;;;;3.50;2.13;;;;;;;10.24;47.55;96648.00;6121050;23;20213;-86
2022/04/21 00:49:22;;;;;;;3.05;1.52;;;;;;;10.20;47.21;96632.13;6061962;23;20191;-86
2022/04/21 00:51:49;;;;;;;6.40;2.20;;;;;;;10.13;48.19;96634.19;6086616;23;20336;-86
2022/04/21 00:54:17;;;;;;;3.45;2.20;;;;;;;10.23;48.04;96639.41;6063208;23;20183;-86
2022/04/21 00:56:44;;;;;;;2.13;1.67;;;;;;;10.12;48.26;96630.78;6085870;23;20262;-86
2022/04/21 00:59:13;;;;;;;2.08;1.70;;;;;;;10.14;47.87;96627.91;6086253;23;20144;-86
2022/04/21 01:04:27;;;;;;;3.88;2.15;;;;;;;10.05;48.42;96624.25;6092983;23;20199;-86
2022/04/21 01:06:53;;;;;;;4.60;2.15;;;;;;;10.11;48.28;96642.22;6061002;23;20188;-86
2022/04/21 01:09:19;;;;;;;2.38;1.77;;;;;;;9.96;48.54;96642.16;6096879;23;20255;-87
2022/04/21 01:11:48;;;;;;;2.38;1.85;;;;;;;9.94;48.59;96645.00;6061099;23;20246;-86
2022/04/21 01:14:16;;;;;;;2.80;1.95;;;;;;;9.88;48.55;96646.00;6060351;23;20251;-86
2022/04/21 01:16:42;;;;;;;3.75;2.08;;;;;;;9.87;48.46;96623.66;6084127;23;20241;-86
2022/04/21 01:19:08;;;;;;;3.80;2.20;;;;;;;9.75;49.22;96612.69;6085243;23;20186;-86
2022/04/21 01:21:34;;;;;;;3.80;1.67;;;;;;;9.71;48.87;96607.19;6085275;23;20202;-86
2022/04/21 01:23:59;;;;;;;3.20;1.92;;;;;;;9.83;48.44;96634.81;6085665;23;20269;-86
2022/04/21 01:26:35;;;;;;;4.35;2.40;;;;;;;9.50;48.93;96614.09;6097151;23;20145;-86
2022/04/21 01:29:05;;;;;;;4.07;2.05;;;;;;;9.61;48.75;96637.56;6063420;23;20199;-86
2022/04/21 01:31:31;;;;;;;3.42;2.47;;;;;;;9.77;48.56;96651.41;6087853;23;20186;-86
2022/04/21 01:33:56;;;;;;;4.38;2.20;;;;;;;9.70;48.23;96651.66;6086936;23;20675;-86
2022/04/21 01:36:22;;;;;;;3.00;2.00;;;;;;;9.57;48.67;96626.88;6062630;23;20168;-86
2022/04/21 01:41:31;;;;;;;3.55;1.92;;;;;;;9.53;49.00;96613.59;6090861;23;20340;-86
2022/04/21 01:43:57;;;;;;;3.35;2.20;;;;;;;9.53;49.64;96613.59;6062423;23;20227;-86
2022/04/21 01:46:23;;;;;;;3.30;2.38;;;;;;;9.48;50.36;96610.19;6097035;23;20511;-86
2022/04/21 01:48:49;;;;;;;4.28;2.33;;;;;;;9.55;50.44;96621.16;6087117;23;20187;-86
2022/04/21 01:51:17;;;;;;;4.85;2.10;;;;;;;9.44;50.22;96609.91;6096209;23;20184;-86
2022/04/21 01:53:43;;;;;;;2.85;2.15;;;;;;;9.59;50.42;96613.63;6061529;23;20149;-86
2022/04/21 01:56:09;;;;;;;2.85;2.20;;;;;;;9.60;50.84;96613.38;6086848;23;20594;-86
2022/04/21 01:58:35;;;;;;;3.20;2.80;;;;;;;9.80;50.48;96643.91;6121701;23;20164;-86
2022/04/21 02:01:01;;;;;;;4.85;2.75;;;;;;;9.48;51.09;96605.78;6087938;23;20184;-87
2022/04/21 02:03:28;;;;;;;2.80;2.40;;;;;;;9.49;51.34;96614.34;6065706;23;20173;-86
2022/04/21 02:05:53;;;;;;;2.78;2.38;;;;;;;9.50;51.29;96608.91;6063527;23;20254;-86
2022/04/21 02:08:20;;;;;;;3.97;2.78;;;;;;;9.44;51.61;96604.72;6122357;23;20195;-86
2022/04/21 02:10:46;;;;;;;3.72;2.42;;;;;;;9.60;51.40;96618.59;6064450;23;20180;-86
2022/04/21 02:13:13;;;;;;;4.13;2.72;;;;;;;9.72;51.66;96637.34;6097397;23;20153;-86
2022/04/21 02:15:38;;;;;;;3.47;2.58;;;;;;;9.45;52.23;96605.50;6112022;23;20191;-86
2022/04/21 02:18:06;;;;;;;4.35;3.30;;;;;;;9.42;52.53;96596.38;6063374;23;20145;-87
2022/04/21 02:20:32;;;;;;;4.60;2.80;;;;;;;9.47;52.86;96603.41;6063840;23;20073;-86
2022/04/21 02:22:58;;;;;;;4.10;2.75;;;;;;;9.45;52.53;96602.91;6111727;23;20270;-86
2022/04/21 02:25:24;;;;;;;3.55;2.70;;;;;;;9.39;52.94;96602.09;6062960;23;20230;-87
2022/04/21 02:27:52;;;;;;;3.08;2.30;;;;;;;9.40;52.61;96606.25;6063858;23;20258;-86
2022/04/21 02:30:19;;;;;;;3.65;2.67;;;;;;;9.42;52.40;96627.56;6063106;23;20175;-86
2022/04/21 02:32:46;;;;;;;4.88;2.65;;;;;;;9.22;52.21;96601.44;6088729;23;20124;-86
2022/04/21 02:35:14;;;;;;;5.70;2.45;;;;;;;9.02;52.20;96597.66;6113260;23;20658;-86
2022/04/21 02:37:45;;;;;;;6.03;3.20;;;;;;;8.96;52.53;96590.84;6098966;23;20160;-86
2022/04/21 02:40:11;;;;;;;3.72;2.60;;;;;;;9.14;52.27;96629.44;6123169;23;20562;-86
2022/04/21 02:42:40;;;;;;;4.20;2.40;;;;;;;8.82;52.67;96593.09;6064377;23;20579;-86
2022/04/21 02:45:11;;;;;;;2.88;2.50;;;;;;;8.76;53.05;96592.25;6064730;23;20372;-87
2022/04/21 02:47:37;;;;;;;2.90;2.58;;;;;;;8.69;53.14;96589.09;6123736;23;20672;-86
2022/04/21 02:50:05;;;;;;;3.05;2.65;;;;;;;8.62;53.04;96583.31;6098317;23;20519;-86
2022/04/21 02:52:38;;;;;;;3.95;2.63;;;;;;;8.60;53.38;96595.75;6099022;23;20275;-86
2022/04/21 02:57:48;;;;;;;3.78;2.53;;;;;;;8.64;53.84;96589.06;6092656;23;20141;-87
2022/04/21 03:00:14;;;;;;;3.58;2.60;;;;;;;8.65;54.13;96582.03;6064285;23;20135;-86
2022/04/21 03:02:40;;;;;;;3.63;2.50;;;;;;;8.67;53.96;96583.38;6101373;23;20183;-86
2022/04/21 03:05:07;;;;;;;3.67;2.83;;;;;;;8.73;54.11;96589.38;6089073;23;20252;-87
2022/04/21 03:07:32;;;;;;;4.65;2.83;;;;;;;8.53;53.87;96572.59;6088642;23;20267;-86
2022/04/21 03:09:58;;;;;;;3.05;2.65;;;;;;;8.36;54.31;96562.31;6124792;23;20179;-86
2022/04/21 03:12:26;;;;;;;4.45;3.10;;;;;;;8.44;54.09;96593.00;6088689;23;20657;-86
2022/04/21 03:14:52;;;;;;;4.80;2.67;;;;;;;8.25;54.20;96571.78;6098626;23;20174;-86
2022/04/21 03:17:18;;;;;;;5.40;3.15;;;;;;;8.20;54.37;96576.13;6123420;23;20184;-86
2022/04/21 03:19:44;;;;;;;3.47;2.63;;;;;;;8.09;54.36;96579.63;6087719;23;20446;-87
2022/04/21 03:24:58;;;;;;;4.15;3.15;;;;;;;7.96;55.40;96576.38;6091914;23;20277;-86
2022/04/21 03:27:26;;;;;;;3.83;2.78;;;;;;;8.20;55.02;96600.25;6123759;23;20260;-86
2022/04/21 03:29:52;;;;;;;3.90;3.08;;;;;;;8.10;55.66;96591.56;6063975;23;20176;-86
2022/04/21 03:32:21;;;;;;;4.40;2.83;;;;;;;7.90;55.85;96576.56;6098153;23;20172;-86
2022/04/21 03:34:46;;;;;;;6.03;3.28;;;;;;;7.90;56.52;96576.56;6098390;23;20354;-86
2022/04/21 03:37:13;;;;;;;5.57;3.22;;;;;;;7.90;57.02;96576.56;6097988;23;20165;-87
2022/04/21 03:39:39;;;;;;;5.72;3.75;;;;;;;7.93;56.69;96570.91;6063501;23;20194;-86
2022/04/21 03:42:07;;;;;;;4.70;3.20;;;;;;;8.09;56.16;96597.78;6123121;23;20211;-86
2022/04/21 03:44:34;;;;;;;3.85;3.00;;;;;;;8.07;56.21;96585.84;6095120;23;20603;-86
2022/04/21 03:47:00;;;;;;;4.22;3.20;;;;;;;8.05;56.92;96589.69;6087784;23;20227;-86
2022/04/21 03:49:29;;;;;;;3.53;2.90;;;;;;;7.80;57.02;96567.66;6097432;23;20261;-86
2022/04/21 03:51:56;;;;;;;5.35;3.47;;;;;;;7.95;57.18;96584.41;6088162;23;20595;-86
2022/04/21 03:54:22;;;;;;;5.25;3.28;;;;;;;7.90;57.32;96584.34;6063534;23;20188;-86
2022/04/21 03:56:49;;;;;;;4.13;3.35;;;;;;;7.80;57.77;96569.47;6063454;23;20179;-86
2022/04/21 03:59:15;;;;;;;5.20;3.58;;;;;;;7.86;57.24;96584.84;6063301;23;20233;-86
2022/04/21 04:01:40;;;;;;;5.20;3.28;;;;;;;7.95;57.43;96597.38;6098020;23;20664;-86
2022/04/21 04:04:06;;;;;;;3.45;2.78;;;;;;;7.79;57.20;96596.41;6063563;23;20143;-86
2022/04/21 04:11:59;;;;;;;5.43;3.40;;;;;;;7.81;57.63;96589.16;6128591;23;20334;-85
2022/04/21 04:14:25;;;;;;;5.75;4.03;;;;;;;7.84;57.96;96593.88;6122533;23;20164;-86
2022/04/21 04:16:52;;;;;;;5.72;3.92;;;;;;;7.92;57.68;96597.84;6122767;23;20571;-86
2022/04/21 04:19:17;;;;;;;6.82;3.50;;;;;;;7.93;57.83;96599.41;6086589;23;20081;-86
2022/04/21 04:21:43;;;;;;;4.30;3.90;;;;;;;7.90;57.97;96598.09;6097722;23;20199;-86
2022/04/21 04:24:08;;;;;;;6.35;4.10;;;;;;;7.94;58.05;96601.78;6062802;23;20145;-86
2022/04/21 04:26:34;;;;;;;4.95;3.97;;;;;;;7.95;58.61;96595.56;6122708;23;20280;-85
2022/04/21 04:28:59;;;;;;;4.82;3.78;;;;;;;7.99;57.78;96598.47;6062872;23;20191;-86
2022/04/21 04:31:25;;;;;;;5.88;3.83;;;;;;;7.94;57.55;96591.41;6087667;23;20641;-86
2022/04/21 04:33:51;;;;;;;5.65;4.05;;;;;;;7.79;57.64;96584.22;6122734;23;20326;-86
2022/04/21 04:36:16;;;;;;;4.88;3.13;;;;;;;7.78;57.13;96567.13;6063051;23;20416;-86
2022/04/21 04:38:48;;;;;;;4.90;3.55;;;;;;;7.57;57.50;96565.28;6122164;23;20632;-86
2022/04/21 04:43:57;;;;;;;6.22;3.50;;;;;;;7.53;58.43;96603.84;6091351;23;20672;-85
2022/04/21 04:46:35;;;;;;;4.10;3.70;;;;;;;7.56;57.44;96605.97;6087730;23;20237;-86
2022/04/21 04:49:07;;;;;;;6.03;3.80;;;;;;;7.59;57.60;96599.50;6064901;23;20239;-86
2022/04/21 04:51:34;;;;;;;5.90;3.92;;;;;;;7.67;58.83;96605.06;6063058;23;20180;-86
2022/04/21 04:54:01;;;;;;;5.63;3.80;;;;;;;7.61;58.78;96603.44;6122480;23;20141;-86
2022/04/21 04:56:29;;;;;;;4.63;3.67;;;;;;;7.65;58.70;96601.16;6063149;23;20187;-86
2022/04/21 04:58:55;;;;;;;5.70;3.75;;;;;;;7.73;58.19;96607.72;6062655;23;20749;-86
2022/04/21 05:01:35;;;;;;;7.65;4.03;;;;;;;7.53;58.98;96593.47;6086162;23;20358;-85
2022/04/21 05:04:13;;;;;;;7.10;5.45;;;;;;;7.50;58.50;96583.59;6096355;23;20176;-85
2022/04/21 05:06:46;;;;;;;6.57;4.35;;;;;;;7.73;59.17;96611.09;6096710;23;20179;-87
2022/04/21 05:09:14;;;;;;;5.57;4.18;;;;;;;7.83;59.34;96592.28;6121574;23;20496;-86
2022/04/21 05:11:41;;;;;;;6.57;4.97;;;;;;;7.75;59.30;96572.78;6063667;23;20160;-86
2022/04/21 05:14:08;;;;;;;7.95;5.30;;;;;;;7.84;59.38;96568.72;6086809;23;20170;-86
2022/04/21 05:16:36;;;;;;;7.07;4.63;;;;;;;7.97;59.17;96582.34;6086385;23;20322;-86
2022/04/21 05:19:07;;;;;;;7.43;5.30;;;;;;;8.06;58.95;96580.91;6110648;23;20278;-87
2022/04/21 05:21:34;;;;;;;6.78;5.85;;;;;;;8.22;58.95;96587.03;6086257;23;20171;-84
2022/04/21 05:24:00;;;;;;;7.45;5.93;;;;;;;8.27;58.54;96565.56;6086953;23;20326;-86
2022/04/21 05:26:27;;;;;;;8.63;5.63;;;;;;;8.49;58.20;96578.53;6062369;23;20184;-86
2022/04/21 05:28:53;;;;;;;10.35;5.38;;;;;;;8.38;58.29;96562.84;6085399;23;20632;-85
2022/04/21 05:31:19;;;;;;;7.78;5.68;;;;;;;8.75;58.38;96587.31;6061686;23;20597;-86
2022/04/21 05:33:45;;;;;;;6.90;5.47;;;;;;;8.76;58.05;96584.47;6096806;23;20220;-87
2022/04/21 05:36:11;;;;;;;6.97;5.03;;;;;;;8.86;57.62;96588.19;6062878;23;20535;-87
2022/04/21 05:38:37;;;;;;;6.32;4.88;;;;;;;8.88;57.21;96578.34;6097025;23;20238;-87
2022/04/21 05:41:04;;;;;;;6.95;5.20;;;;;;;9.04;57.46;96593.00;6098003;23;20218;-86
2022/04/21 05:43:39;;;;;;;6.15;4.82;;;;;;;8.92;57.45;96587.97;6087491;23;20573;-87
2022/04/21 05:46:05;;;;;;;9.38;5.68;;;;;;;8.99;56.97;96559.22;6087604;23;20330;-86
2022/04/21 05:48:30;;;;;;;5.75;4.95;;;;;;;9.19;57.13;96593.13;6097300;23;20228;-85
2022/04/21 05:50:56;;;;;;;7.53;4.93;;;;;;;9.14;57.18;96563.72;6097034;23;20183;-87
2022/04/21 05:53:23;;;;;;;5.78;5.10;;;;;;;9.41;56.14;96584.44;6097668;23;20271;-87
2022/04/21 05:55:49;;;;;;;6.80;5.20;;;;;;;9.43;56.16;96564.16;6097505;23;20176;-87
2022/04/21 05:58:18;;;;;;;5.70;4.53;;;;;;;9.60;56.57;96579.59;6063188;23;20184;-86
2022/04/21 06:00:44;;;;;;;6.18;4.50;;;;;;;9.38;55.88;96548.56;6086493;23;20253;-87
2022/04/21 06:03:11;;;;;;;5.90;4.82;;;;;;;9.28;56.19;96548.50;6089221;23;20676;-85
2022/04/21 06:05:37;;;;;;;6.20;4.75;;;;;;;9.56;56.12;96561.13;6065139;23;20222;-86
2022/04/21 06:08:03;;;;;;;6.50;4.70;;;;;;;9.86;55.41;96580.50;6098485;23;20365;-87
2022/04/21 06:10:28;;;;;;;6.93;4.95;;;;;;;9.87;54.93;96553.47;6065298;23;20676;-88
2022/04/21 06:12:54;;;;;;;7.50;4.97;;;;;;;10.24;54.63;96580.34;6123977;23;20175;-88
2022/04/21 06:15:19;;;;;;;6.10;4.38;;;;;;;10.23;54.68;96573.56;6098533;23;20257;-87
2022/04/21 06:17:45;;;;;;;7.75;5.07;;;;;;;10.18;54.23;96556.16;6064371;23;20351;-87
2022/04/21 06:20:11;;;;;;;5.95;4.97;;;;;;;10.37;54.30;96572.09;6098207;23;20168;-86
2022/04/21 06:22:37;;;;;;;7.60;5.22;;;;;;;10.22;54.27;96566.81;6098890;23;20191;-89
2022/04/21 06:25:02;;;;;;;6.15;4.70;;;;;;;10.55;53.87;96576.00;6064287;23;20673;-88
2022/04/21 06:27:28;;;;;;;8.27;5.75;;;;;;;10.55;53.88;96563.00;6064509;23;20597;-86
2022/04/21 06:29:53;;;;;;;8.30;5.93;;;;;;;10.58;53.20;96580.72;6087988;23;20567;-86
2022/04/21 06:32:19;;;;;;;6.05;4.50;;;;;;;10.63;53.21;96583.31;6098381;23;20197;-86
2022/04/21 06:34:44;;;;;;;5.68;4.47;;;;;;;10.71;53.30;96566.41;6099043;23;20159;-87
2022/04/21 06:37:09;;;;;;;6.80;4.85;;;;;;;10.88;52.85;96568.75;6098673;23;20641;-88
2022/04/21 06:39:35;;;;;;;7.05;5.38;;;;;;;10.73;52.66;96572.13;6064030;23;20343;-87
2022/04/21 06:42:00;;;;;;;6.93;4.45;;;;;;;10.88;52.99;96566.13;6098820;23;20336;-87
2022/04/21 06:49:54;;;;;;;5.47;4.53;;;;;;;10.57;53.09;96566.13;6092420;23;20223;-89
2022/04/21 06:52:19;;;;;;;7.50;5.15;;;;;;;11.09;52.60;96581.75;6090588;23;20260;-86
2022/04/21 06:54:44;;;;;;;6.13;5.45;;;;;;;11.01;52.52;96562.25;6098960;23;20239;-87
2022/04/21 06:57:10;;;;;;;6.75;5.70;;;;;;;11.15;51.88;96571.06;6089104;23;20164;-86
2022/04/21 06:59:35;;;;;;;5.93;4.55;;;;;;;11.39;51.83;96573.91;6088382;23;20656;-86
2022/04/21 07:02:01;;;;;;;6.05;5.13;;;;;;;11.38;51.71;96582.78;6098907;23;20261;-86
2022/04/21 07:04:27;;;;;;;6.28;5.28;;;;;;;11.27;51.50;96581.22;6064205;23;20267;-85
2022/04/21 07:06:53;;;;;;;7.47;5.07;;;;;;;11.95;50.73;96586.03;6084849;23;20163;-86
2022/04/21 07:09:18;;;;;;;6.40;4.97;;;;;;;11.85;50.19;96580.81;6097600;23;20635;-87
2022/04/21 07:11:44;;;;;;;7.18;4.90;;;;;;;11.79;49.88;96566.25;6065682;23;20168;-87
2022/04/21 07:14:10;;;;;;;6.85;5.00;;;;;;;11.66;50.02;96562.38;6063633;23;20634;-86
2022/04/21 07:16:35;;;;;;;5.82;5.15;;;;;;;11.90;50.11;96580.03;6064043;23;20188;-85
2022/04/21 07:19:01;;;;;;;6.47;5.20;;;;;;;11.98;49.82;96562.03;6097722;23;20231;-84
2022/04/21 07:21:26;;;;;;;5.97;4.72;;;;;;;12.29;48.84;96574.13;6123999;23;20633;-86
2022/04/21 07:23:52;;;;;;;7.50;4.88;;;;;;;12.13;48.59;96555.94;6089129;23;20227;-85
2022/04/21 07:26:17;;;;;;;5.82;4.22;;;;;;;12.64;48.12;96567.13;6088673;23;20179;-86
2022/04/21 07:28:44;;;;;;;6.22;4.40;;;;;;;12.66;47.77;96565.00;6063249;23;20217;-86
2022/04/21 07:31:10;;;;;;;6.07;4.85;;;;;;;12.77;47.85;96563.91;6064123;23;20154;-87
2022/04/21 07:33:39;;;;;;;4.93;4.38;;;;;;;12.69;47.05;96564.47;6123532;23;20203;-85
2022/04/21 07:36:04;;;;;;;5.88;4.47;;;;;;;13.18;46.53;96557.53;6100309;23;20266;-84
2022/04/21 07:38:31;;;;;;;5.45;4.30;;;;;;;13.33;46.98;96554.03;6147996;23;20605;-85
2022/04/21 07:40:57;;;;;;;4.72;4.00;;;;;;;13.34;46.36;96550.38;6123114;23;20152;-85
2022/04/21 07:43:22;;;;;;;4.68;3.70;;;;;;;13.91;45.36;96556.50;6086631;23;20598;-87
2022/04/21 07:45:49;;;;;;;5.15;3.92;;;;;;;14.35;45.55;96555.44;6089623;23;20578;-86
2022/04/21 07:48:15;;;;;;;4.50;4.00;;;;;;;14.09;44.91;96556.84;6098389;23;20176;-86
2022/04/21 07:50:40;;;;;;;5.07;3.45;;;;;;;14.32;44.11;96550.75;6087032;23;20176;-84
2022/04/21 07:53:15;;;;;;;4.93;3.40;;;;;;;14.64;43.29;96541.41;6112389;23;20293;-86
2022/04/21 07:55:42;;;;;;;7.82;3.80;;;;;;;15.08;42.96;96547.25;6089389;23;20246;-87
2022/04/21 07:58:08;;;;;;;5.05;3.70;;;;;;;15.28;42.19;96544.28;6087587;23;20653;-86
2022/04/21 08:00:36;;;;;;;3.50;3.20;;;;;;;15.33;41.29;96549.44;6062548;23;20258;-84
2022/04/21 08:03:03;;;;;;;3.72;3.10;;;;;;;15.52;41.86;96551.19;6097960;23;20179;-85
2022/04/21 08:05:28;;;;;;;4.80;3.67;;;;;;;15.74;41.31;96548.66;6096392;23;20554;-86
2022/04/21 08:07:53;;;;;;;4.25;2.85;;;;;;;15.72;40.97;96544.78;6061632;23;20262;-85
2022/04/21 08:10:23;;;;;;;3.40;3.08;;;;;;;15.88;40.80;96553.16;6095331;23;20224;-82
2022/04/21 08:12:51;;;;;;;4.25;2.90;;;;;;;15.43;41.38;96548.47;6065138;23;20582;-84
2022/04/21 08:15:30;;;;;;;3.35;2.97;;;;;;;15.42;40.93;96546.94;6121588;23;20283;-85
2022/04/21 08:17:58;;;;;;;3.72;3.10;;;;;;;15.64;40.36;96542.84;6087499;23;20211;-84
2022/04/21 08:20:25;;;;;;;3.92;2.63;;;;;;;15.84;40.27;96549.56;6096894;23;20260;-84
2022/04/21 08:22:50;;;;;;;3.22;2.47;;;;;;;16.34;39.63;96538.28;6087665;23;20141;-85
2022/04/21 08:33:28;;;;;;;4.53;2.10;;;;;;;17.85;37.72;96549.00;6092178;23;20164;-85
2022/04/21 08:35:57;;;;;;;6.75;2.67;;;;;;;17.86;37.30;96547.97;6097424;23;20218;-85
2022/04/21 08:38:27;;;;;;;3.70;2.40;;;;;;;18.26;36.63;96555.00;6063876;23;20590;-87
2022/04/21 08:41:00;;;;;;;3.15;2.17;;;;;;;18.35;35.72;96547.84;6089356;23;20527;-87
2022/04/21 08:43:27;;;;;;;2.67;2.33;;;;;;;18.50;35.63;96546.63;6122466;23;20352;-86
2022/04/21 08:45:54;;;;;;;2.42;2.10;;;;;;;18.33;36.45;96547.38;6087138;23;20180;-84
2022/04/21 08:48:22;;;;;;;4.10;1.80;;;;;;;18.23;35.45;96552.97;6121820;23;20661;-85
2022/04/21 08:50:47;;;;;;;4.32;1.90;;;;;;;18.61;35.87;96544.44;6088012;23;20085;-84
2022/04/21 08:53:15;;;;;;;1.80;1.63;;;;;;;18.79;34.68;96545.19;6121517;23;20215;-85
2022/04/21 08:55:40;;;;;;;3.47;1.70;;;;;;;18.59;35.54;96544.75;6122628;23;20140;-82
2022/04/21 08:58:06;;;;;;;2.30;2.10;;;;;;;18.79;35.17;96534.66;6121368;23;20263;-81
2022/04/21 09:00:32;;;;;;;1.70;1.60;;;;;;;18.26;35.37;96532.03;6096673;23;20315;-84
2022/04/21 09:03:04;;;;;;;1.80;1.70;;;;;;;17.53;36.00;96535.13;6087218;23;20605;-84
2022/04/21 09:05:30;;;;;;;2.50;2.22;;;;;;;17.35;36.23;96536.16;6097785;23;20492;-82
2022/04/21 09:07:57;;;;;;;2.38;2.00;;;;;;;16.83;37.38;96529.53;6097568;23;20167;-85
2022/04/21 09:10:23;;;;;;;2.15;1.85;;;;;;;16.85;37.21;96532.66;6097837;23;20226;-85
2022/04/21 09:12:55;;;;;;;2.92;1.80;;;;;;;16.63;37.52;96528.16;6099224;23;20250;-82
2022/04/21 09:15:22;;;;;;;2.40;2.03;;;;;;;16.45;38.27;96534.34;6097683;23;20188;-81
2022/04/21 09:17:51;;;;;;;2.15;1.90;;;;;;;16.39;38.60;96538.19;6122980;23;20590;-83
2022/04/21 09:20:18;;;;;;;3.15;2.67;;;;;;;16.10;39.02;96523.56;6112221;23;20067;-85
2022/04/21 09:22:53;;;;;;;2.88;2.20;;;;;;;15.98;39.58;96529.31;6122158;23;20251;-84
2022/04/21 09:25:30;;;;;;;3.28;2.20;;;;;;;16.41;38.33;96534.16;6087423;23;20470;-83
2022/04/21 09:27:56;;;;;;;3.50;2.28;;;;;;;16.07;38.82;96540.69;6087126;23;20077;-84
2022/04/21 09:30:22;;;;;;;2.83;2.50;;;;;;;15.80;39.46;96541.50;6096724;23;20161;-82
2022/04/21 09:32:52;;;;;;;2.45;2.17;;;;;;;15.56;40.36;96544.31;6087679;23;20191;-85
2022/04/21 09:35:18;;;;;;;2.42;2.17;;;;;;;15.85;39.50;96538.00;6098516;23;20145;-83
2022/04/21 09:37:45;;;;;;;3.40;2.60;;;;;;;15.62;40.01;96539.75;6089566;23;20145;-81
2022/04/21 09:40:11;;;;;;;2.97;1.85;;;;;;;15.87;40.15;96541.13;6123906;23;20608;-81
2022/04/21 09:42:36;;;;;;;3.45;1.80;;;;;;;16.37;39.51;96542.97;6064621;23;20264;-82
2022/04/21 09:47:51;;;;;;;3.53;2.10;;;;;;;16.04;39.27;96546.53;6128423;23;20183;-80
2022/04/21 09:50:16;;;;;;;3.15;2.85;;;;;;;16.18;39.21;96545.75;6123451;23;20174;-86
2022/04/21 09:52:52;;;;;;;2.95;2.60;;;;;;;16.86;38.70;96543.94;6064364;23;20218;-87
2022/04/21 09:55:21;;;;;;;3.13;2.20;;;;;;;17.66;37.35;96538.72;6089665;23;20184;-84
2022/04/21 09:57:50;;;;;;;3.03;2.50;;;;;;;17.81;36.82;96532.28;6151379;23;20183;-80
2022/04/21 10:00:16;;;;;;;4.10;2.90;;;;;;;17.14;36.96;96525.38;6090677;23;20163;-84
2022/04/21 10:02:45;;;;;;;3.05;2.30;;;;;;;17.79;37.47;96521.28;6065630;23;20265;-86
2022/04/21 10:05:11;;;;;;;2.08;1.88;;;;;;;18.43;36.43;96527.88;6099271;23;20176;-79
2022/04/21 10:07:37;;;;;;;2.50;2.30;;;;;;;17.88;34.99;96521.31;6115340;23;20168;-80
2022/04/21 10:10:03;;;;;;;2.40;2.20;;;;;;;17.94;35.23;96525.34;6064055;23;20199;-81
2022/04/21 10:12:29;;;;;;;4.38;2.45;;;;;;;18.18;35.72;96522.28;6066869;23;20276;-82
2022/04/21 10:14:55;;;;;;;4.40;2.70;;;;;;;17.50;36.02;96524.44;6098460;23;20185;-83
2022/04/21 10:17:21;;;;;;;3.67;2.58;;;;;;;17.65;35.51;96516.13;6123188;23;20356;-83
2022/04/21 10:19:51;;;;;;;3.55;2.60;;;;;;;17.01;36.76;96514.63;6122293;23;20262;-83
2022/04/21 10:22:17;;;;;;;3.88;2.40;;;;;;;17.34;35.32;96510.91;6114015;23;20089;-82
2022/04/21 10:24:43;;;;;;;2.97;2.35;;;;;;;17.28;34.65;96510.28;6124068;23;20259;-83
2022/04/21 10:27:34;;;;;;;2.88;1.80;;;;;;;17.71;35.71;96499.09;6123984;23;20133;-82
2022/04/21 10:30:00;;;;;;;3.40;1.75;;;;;;;18.01;34.10;96501.97;6123940;23;20137;-81
2022/04/21 10:32:54;;;;;;;2.05;1.70;;;;;;;18.21;34.40;96486.63;6066484;23;20224;-79
2022/04/21 10:35:40;;;;;;;2.80;1.95;;;;;;;17.92;34.39;96503.81;6123134;23;20192;-82
2022/04/21 10:38:14;;;;;;;1.95;1.83;;;;;;;18.58;34.09;96490.47;6149795;23;20262;-81
2022/04/21 10:41:07;;;;;;;2.22;2.03;;;;;;;18.72;34.27;96483.16;6088736;23;20163;-82
2022/04/21 10:43:48;;;;;;;2.60;2.00;;;;;;;17.74;33.96;96477.41;6112873;23;20089;-81
2022/04/21 10:46:19;;;;;;;2.45;1.70;;;;;;;17.56;35.04;96475.84;6113874;23;20605;-81
2022/04/21 10:48:45;;;;;;;3.00;1.90;;;;;;;17.36;34.96;96472.69;6087787;23;20058;-80
2022/04/21 10:51:11;;;;;;;3.30;2.30;;;;;;;17.38;34.84;96467.91;6088135;23;20250;-81
2022/04/21 10:59:31;;;;;;;3.78;2.25;;;;;;;17.35;36.31;96465.88;6127355;23;20176;-82
2022/04/21 11:02:10;;;;;;;2.88;1.70;;;;;;;17.33;36.05;96473.31;6065170;23;20317;-83
2022/04/21 11:04:36;;;;;;;3.55;2.35;;;;;;;17.45;36.35;96464.06;6149748;23;20172;-83
2022/04/21 11:07:10;;;;;;;17.13;3.22;;;;;;;17.13;35.96;96466.72;6123421;23;20167;-81
2022/04/21 11:09:45;;;;;;;3.42;2.30;;;;;;;17.30;36.39;96466.00;6088509;23;20167;-84
2022/04/21 11:12:13;;;;;;;;;;;;;;;17.34;36.35;96458.28;6066409;23;20148;-82
2022/04/21 11:14:39;;;;;;;4.10;2.47;;;;;;;17.92;35.27;96449.28;6088184;23;20127;-83
2022/04/21 11:17:09;;;;;;;3.22;2.20;;;;;;;17.96;34.84;96446.81;6122848;23;20590;-84
2022/04/21 11:19:53;;;;;;;2.72;2.47;;;;;;;17.83;34.82;96434.53;6097550;23;20208;-81
2022/04/21 11:22:41;;;;;;;3.38;2.30;;;;;;;17.89;35.13;96436.75;6064364;23;20080;-83
2022/04/21 11:25:08;;;;;;;3.70;2.55;;;;;;;18.17;34.95;96451.47;6123516;23;20538;-83
2022/04/21 11:27:40;;;;;;;4.95;2.35;;;;;;;18.09;34.62;96440.59;6099176;23;20237;-84
2022/04/21 11:30:07;;;;;;;3.20;2.17;;;;;;;17.86;35.46;96432.09;6097909;23;20246;-82
2022/04/21 11:32:33;;;;;;;2.85;2.55;;;;;;;17.83;35.52;96442.44;6097785;23;20073;-84
2022/04/21 11:35:04;;;;;;;3.83;3.22;;;;;;;17.73;36.05;96444.25;6123173;23;20227;-81
2022/04/21 11:37:50;;;;;;;4.40;2.30;;;;;;;17.72;35.70;96436.69;6088510;23;20226;-83
2022/04/21 11:40:33;;;;;;;6.15;2.80;;;;;;;17.87;35.62;96428.38;6149804;23;20270;-82
2022/04/21 11:43:02;;;;;;;3.55;2.45;;;;;;;17.99;35.47;96425.09;6122219;23;20155;-81
2022/04/21 11:45:35;;;;;;;3.67;2.35;;;;;;;18.30;34.87;96417.03;6116099;23;20215;-83
2022/04/21 11:48:00;;;;;;;4.90;3.00;;;;;;;18.53;36.34;96430.78;6100215;23;20141;-78
2022/04/21 11:50:30;;;;;;;2.58;2.38;;;;;;;18.26;37.63;96429.25;6100068;23;20170;-87
2022/04/21 11:52:57;;;;;;;2.83;2.47;;;;;;;17.61;37.14;96420.41;6098417;23;20167;-79
2022/04/21 11:55:29;;;;;;;3.75;2.50;;;;;;;17.62;38.26;96424.59;6113878;23;20180;-80
2022/04/21 11:57:55;;;;;;;3.08;2.60;;;;;;;18.02;37.58;96415.81;6088106;23;20309;-84
2022/04/21 12:08:38;;;;;;;3.65;3.22;;;;;;;18.37;35.71;96400.75;6125928;23;20164;-80
2022/04/21 12:11:09;;;;;;;4.70;3.00;;;;;;;18.87;35.36;96389.59;6113355;23;20723;-83
2022/04/21 12:13:35;;;;;;;2.63;2.33;;;;;;;19.48;35.33;96396.38;6123936;23;20222;-81
2022/04/21 12:16:00;;;;;;;5.78;3.03;;;;;;;19.83;35.03;96388.25;6097923;23;20157;-77
2022/04/21 12:18:26;;;;;;;3.20;2.80;;;;;;;19.74;41.42;96398.06;6087574;23;20191;-80
2022/04/21 12:20:53;;;;;;;35.42;5.13;;;;;;;19.41;38.51;96393.50;6098315;23;20170;-83
2022/04/21 12:23:24;;;;;;;3.83;3.47;;;;;;;19.38;39.56;96387.00;6083609;23;20284;-81
2022/04/21 12:25:52;;;;;;;4.80;2.42;;;;;;;19.26;39.59;96389.53;6099290;23;20183;-82
2022/04/21 12:28:18;;;;;;;3.67;3.10;;;;;;;19.24;37.89;96381.16;6098221;23;20174;-82
2022/04/21 12:30:44;;;;;;;3.92;3.30;;;;;;;18.90;38.46;96388.97;6133513;23;20266;-84